Airfield :







YOU CAN JOIN US ON...

 
LOGIN :

Register | Disclaimer

   EN    FR    IT 

 









Legend :    VFR   Marginal VFR   IFR   Intensive IFR   Very Intensive IFR
Visi :
Ceiling :
>= 8 km
>= 3000ft
5 to 8 km
1000 to 3000 ft
1500m to 5 km
500 to 1000 ft
800 to 1500m
200 to 500 ft
< 800m
< 200 ft
Symbols :   Thunderstorms  Fog  Heavy snow  Heavy precipitations  Wind > 20 kt






- Airport Elevation : 357 ft
- IATA code : YSJ


CYSJ - Saint John

CURRENT METAR :
  • 151300Z 22022G31KT 10SM BKN010 07/04 A2908 RMK SC7 SLP851 DENSITY ALT 400FT

EXPIRED METARs :
  • 151253Z 22025G33KT 10SM BKN010 07/05 A2908 RMK SF7 SLP852 DENSITY ALT 500FT
  • 151228Z 20023G34KT 5SM -DZ BR OVC010 08/07 A2908 RMK SF8 SLP850 DENSITY ALT 600FT
  • 151200Z 20023G33KT 6SM BR OVC009 08/07 A2908 RMK SF8 SLP851 DENSITY ALT 700FT
  • 151100Z 20024G32KT 4SM BR OVC008 09/08 A2908 RMK SF8 SLP853 DENSITY ALT 700FT

TAF TAF CYSJ
Valid from the 15 at 12:00 until the 16 at 00:00 UTC


151139Z 1512/1524 20025G35KT 3SM -DZ BR OVC006
TEMPO 1512/1515 6SM BR OVC010
FM151500 24025G35KT P6SM BKN015
FM151700 26025G35KT P6SM BKN030 RMK NXT FCST BY 151800Z



MET'MAP, your aeronautical weather chart ! - Copyright ORBIFLY December 2007 - Disclaimer

ORBIFLY MET'MAP TEAM :

Programming & Development : Alexandra Zaïnal
Concept & original design : Baudouin d'Aumeries
Assistance for programming : Marc-Olivier Méhu
Technical & hardware support : Manuel Goepfert

Contact : metmap@orbifly.com




SOURCES & CREDITS :

   NOAA